createdAt,value
2018-05-12T00:00:07.692Z,0.00
2018-05-12T00:01:07.654Z,0.00
2018-05-12T00:02:07.656Z,0.00
2018-05-12T00:03:07.653Z,0.00
2018-05-12T00:04:07.645Z,0.00
2018-05-12T00:05:08.652Z,0.00
2018-05-12T00:06:07.630Z,0.00
2018-05-12T00:07:07.626Z,0.00
2018-05-12T00:08:07.636Z,0.00
2018-05-12T00:09:07.612Z,0.00
2018-05-12T00:10:07.648Z,0.00
2018-05-12T00:11:07.605Z,0.00
2018-05-12T00:12:07.607Z,0.00
2018-05-12T00:13:07.584Z,0.00
2018-05-12T00:14:07.598Z,0.00
2018-05-12T00:15:07.583Z,0.00
2018-05-12T00:16:07.590Z,0.00
2018-05-12T00:17:07.578Z,0.00
2018-05-12T00:18:07.577Z,0.00
2018-05-12T00:19:07.590Z,0.00
2018-05-12T00:20:07.612Z,0.00
2018-05-12T00:21:07.556Z,0.00
2018-05-12T00:22:07.548Z,0.00
2018-05-12T00:23:07.566Z,0.00
2018-05-12T00:24:07.535Z,0.00
2018-05-12T00:25:07.535Z,0.00
2018-05-12T00:26:07.528Z,0.00
2018-05-12T00:27:07.535Z,0.00
2018-05-12T00:28:07.528Z,0.00
2018-05-12T00:29:07.515Z,0.00
2018-05-12T00:30:07.504Z,0.00
2018-05-12T00:31:07.507Z,0.00
2018-05-12T00:32:07.503Z,0.00
2018-05-12T00:33:07.487Z,0.00
2018-05-12T00:34:07.491Z,0.00
2018-05-12T00:35:07.487Z,0.00
2018-05-12T00:36:07.482Z,0.00
2018-05-12T00:37:07.487Z,0.00
2018-05-12T00:38:07.471Z,0.00
2018-05-12T00:39:07.467Z,0.00
2018-05-12T00:40:07.453Z,0.00
2018-05-12T00:41:07.465Z,0.00
2018-05-12T00:42:07.459Z,0.00
2018-05-12T00:43:07.449Z,0.00
2018-05-12T00:44:07.449Z,0.00
2018-05-12T00:45:07.438Z,0.00
2018-05-12T00:46:07.444Z,0.00
2018-05-12T00:47:07.436Z,0.00
2018-05-12T00:48:07.455Z,0.00
2018-05-12T00:49:07.422Z,0.00
2018-05-12T00:50:07.411Z,0.00
2018-05-12T00:51:07.407Z,0.00
2018-05-12T00:52:07.454Z,0.00
2018-05-12T00:53:07.409Z,0.00
2018-05-12T00:54:07.414Z,0.00
2018-05-12T00:55:07.386Z,0.00
2018-05-12T00:56:07.428Z,0.00
2018-05-12T00:57:07.385Z,0.00
2018-05-12T00:58:07.371Z,0.00
2018-05-12T00:59:07.372Z,0.00
2018-05-12T01:00:07.362Z,0.00
2018-05-12T01:01:07.364Z,0.00
2018-05-12T01:02:07.360Z,0.00
2018-05-12T01:03:07.358Z,0.00
2018-05-12T01:04:07.344Z,0.00
2018-05-12T01:05:07.337Z,0.00
2018-05-12T01:06:07.326Z,0.00
2018-05-12T01:07:07.324Z,0.00
2018-05-12T01:08:07.323Z,0.00
2018-05-12T01:09:07.334Z,0.00
2018-05-12T01:10:07.329Z,0.00
2018-05-12T01:11:07.307Z,0.00
2018-05-12T01:12:07.293Z,0.00
2018-05-12T01:13:07.294Z,0.00
2018-05-12T01:14:07.296Z,0.00
2018-05-12T01:15:07.293Z,0.00
2018-05-12T01:16:07.287Z,0.00
2018-05-12T01:17:07.319Z,0.00
2018-05-12T01:18:07.270Z,0.00
2018-05-12T01:19:07.265Z,0.00
2018-05-12T01:20:07.265Z,0.00
2018-05-12T01:21:07.254Z,0.00
2018-05-12T01:22:07.255Z,0.00
2018-05-12T01:23:07.254Z,0.00
2018-05-12T01:24:07.231Z,0.00
2018-05-12T01:25:07.228Z,0.00
2018-05-12T01:26:07.232Z,0.00
2018-05-12T01:27:07.242Z,0.00
2018-05-12T01:28:07.217Z,0.00
2018-05-12T01:29:07.219Z,0.00
2018-05-12T01:30:07.206Z,0.00
2018-05-12T02:03:52.537Z,0.00
2018-05-12T02:04:52.499Z,0.00
2018-05-12T02:07:36.371Z,0.00
2018-05-12T02:08:36.335Z,0.00
2018-05-12T02:10:29.249Z,0.00
2018-05-12T02:11:29.221Z,0.00
2018-05-12T02:13:22.127Z,0.00
2018-05-12T02:14:22.113Z,0.00
2018-05-12T02:16:15.024Z,0.00
2018-05-12T02:17:14.977Z,0.00
2018-05-12T02:18:14.985Z,0.00
2018-05-12T02:19:14.979Z,0.00
2018-05-12T02:20:14.960Z,0.00
2018-05-12T02:21:14.965Z,0.00
2018-05-12T02:22:14.958Z,0.00
2018-05-12T02:23:14.945Z,0.00
2018-05-12T02:24:14.944Z,0.00
2018-05-12T02:25:14.935Z,0.00
2018-05-12T02:26:14.931Z,0.00
2018-05-12T02:27:14.924Z,0.00
2018-05-12T02:28:14.909Z,0.00
2018-05-12T02:29:14.920Z,0.00
2018-05-12T02:30:15.570Z,0.00
2018-05-12T02:31:14.917Z,0.00
2018-05-12T02:32:14.897Z,0.00
2018-05-12T02:33:14.894Z,0.00
2018-05-12T02:34:14.901Z,0.00
2018-05-12T02:35:14.876Z,0.00
2018-05-12T02:36:14.880Z,0.00
2018-05-12T02:37:14.872Z,0.00
2018-05-12T02:38:14.866Z,0.00
2018-05-12T02:39:14.856Z,0.00
2018-05-12T02:40:14.869Z,0.00
2018-05-12T02:41:14.849Z,0.00
2018-05-12T02:42:14.835Z,0.00
2018-05-12T02:43:14.833Z,0.00
2018-05-12T02:44:14.825Z,0.00
2018-05-12T02:45:14.837Z,0.00
2018-05-12T02:46:14.815Z,0.00
2018-05-12T02:47:14.815Z,0.00
2018-05-12T02:48:14.807Z,0.00
2018-05-12T02:49:14.799Z,0.00
2018-05-12T02:50:14.794Z,0.00
2018-05-12T02:51:14.791Z,0.00
2018-05-12T02:52:14.786Z,0.00
2018-05-12T02:53:14.782Z,0.00
2018-05-12T02:54:14.774Z,0.00
2018-05-12T02:55:14.767Z,0.00
2018-05-12T02:56:14.768Z,0.00
2018-05-12T02:57:14.757Z,0.00
2018-05-12T02:58:14.749Z,0.00
2018-05-12T02:59:14.747Z,0.00
2018-05-12T03:00:14.753Z,0.00
2018-05-12T03:01:14.734Z,0.00
2018-05-12T03:02:14.731Z,0.00
2018-05-12T03:03:14.724Z,0.00
2018-05-12T03:04:14.720Z,0.00
2018-05-12T03:05:14.711Z,0.00
2018-05-12T03:06:14.702Z,0.00
2018-05-12T03:07:14.708Z,0.00
2018-05-12T03:08:14.696Z,0.00
2018-05-12T03:09:14.688Z,0.00
2018-05-12T03:10:14.705Z,4.00
2018-05-12T03:11:14.687Z,4.00
2018-05-12T03:12:14.679Z,0.00
2018-05-12T03:13:14.669Z,4.00
2018-05-12T03:14:14.663Z,4.00
2018-05-12T03:15:14.680Z,4.00
2018-05-12T03:16:14.660Z,4.00
2018-05-12T03:17:14.651Z,4.00
2018-05-12T03:18:14.644Z,8.00
2018-05-12T03:19:14.638Z,8.00
2018-05-12T03:20:14.632Z,8.00
2018-05-12T03:21:14.628Z,8.00
2018-05-12T03:22:14.620Z,12.00
2018-05-12T03:23:14.611Z,12.00
2018-05-12T03:24:14.610Z,16.00
2018-05-12T03:25:14.605Z,20.00
2018-05-12T03:26:14.606Z,20.00
2018-05-12T03:27:14.597Z,28.00
2018-05-12T03:28:14.585Z,32.00
2018-05-12T03:29:14.582Z,36.00
2018-05-12T03:30:14.587Z,40.00
2018-05-12T03:31:14.570Z,44.00
2018-05-12T03:32:14.578Z,52.00
2018-05-12T03:33:14.565Z,64.00
2018-05-12T03:34:14.553Z,68.00
2018-05-12T03:35:14.564Z,84.00
2018-05-12T03:36:14.543Z,92.00
2018-05-12T03:37:14.553Z,104.00
2018-05-12T03:38:14.526Z,116.00
2018-05-12T03:39:14.534Z,128.00
2018-05-12T03:40:14.520Z,148.00
2018-05-12T03:41:14.529Z,168.00
2018-05-12T03:42:14.529Z,184.00
2018-05-12T03:43:14.507Z,204.00
2018-05-12T03:44:14.503Z,228.00
2018-05-12T03:45:14.500Z,248.00
2018-05-12T03:46:14.497Z,276.00
2018-05-12T03:47:14.487Z,300.00
2018-05-12T03:48:14.476Z,328.00
2018-05-12T03:49:14.477Z,356.00
2018-05-12T03:50:14.465Z,388.00
2018-05-12T03:51:14.460Z,420.00
2018-05-12T03:52:14.473Z,452.00
2018-05-12T03:53:14.451Z,488.00
2018-05-12T03:54:14.442Z,528.00
2018-05-12T03:55:14.440Z,568.00
2018-05-12T03:56:14.440Z,612.00
2018-05-12T03:57:14.442Z,660.00
2018-05-12T03:58:14.428Z,704.00
2018-05-12T03:59:14.424Z,756.00
2018-05-12T04:00:14.417Z,812.00
2018-05-12T04:01:14.405Z,868.00
2018-05-12T04:02:14.398Z,924.00
2018-05-12T04:03:14.398Z,976.00
2018-05-12T04:04:14.406Z,1032.00
2018-05-12T04:05:14.388Z,1096.00
2018-05-12T04:06:14.389Z,1152.00
2018-05-12T04:07:14.390Z,1204.00
2018-05-12T04:08:14.367Z,1272.00
2018-05-12T04:09:14.362Z,1344.00
2018-05-12T04:10:14.356Z,1408.00
2018-05-12T04:11:14.353Z,1476.00
2018-05-12T04:12:14.349Z,1544.00
2018-05-12T04:13:14.337Z,1608.00
2018-05-12T04:14:14.331Z,1676.00
2018-05-12T04:15:14.338Z,1748.00
2018-05-12T04:16:14.334Z,1804.00
2018-05-12T04:17:14.321Z,1868.00
2018-05-12T04:18:14.313Z,1956.00
2018-05-12T04:19:14.309Z,2040.00
2018-05-12T04:20:14.301Z,2112.00
2018-05-12T04:21:14.287Z,2192.00
2018-05-12T04:22:14.293Z,2272.00
2018-05-12T04:23:14.287Z,2348.00
2018-05-12T04:24:14.286Z,2424.00
2018-05-12T04:25:14.274Z,2504.00
2018-05-12T04:26:14.269Z,2584.00
2018-05-12T04:27:14.279Z,2664.00
2018-05-12T04:28:14.261Z,2744.00
2018-05-12T04:29:14.256Z,2828.00
2018-05-12T04:30:14.251Z,2908.00
2018-05-12T04:31:14.263Z,2984.00
2018-05-12T04:32:14.243Z,3052.00
2018-05-12T04:33:14.232Z,3128.00
2018-05-12T04:34:14.233Z,3200.00
2018-05-12T04:35:14.237Z,3268.00
2018-05-12T04:36:14.223Z,3344.00
2018-05-12T04:37:14.220Z,3424.00
2018-05-12T04:38:14.213Z,3508.00
2018-05-12T04:39:14.209Z,3572.00
2018-05-12T04:40:14.201Z,3544.00
2018-05-12T04:41:14.202Z,3616.00
2018-05-12T04:42:14.191Z,3684.00
2018-05-12T04:43:14.251Z,3744.00
2018-05-12T04:44:14.184Z,3816.00
2018-05-12T04:45:14.284Z,3872.00
2018-05-12T04:46:14.174Z,3940.00
2018-05-12T04:47:14.173Z,4004.00
2018-05-12T04:48:14.174Z,4080.00
2018-05-12T04:49:14.158Z,4168.00
2018-05-12T04:50:14.155Z,4248.00
2018-05-12T04:51:14.148Z,4320.00
2018-05-12T04:52:14.150Z,4384.00
2018-05-12T04:53:14.131Z,4452.00
2018-05-12T04:54:14.153Z,4512.00
2018-05-12T04:55:14.141Z,4560.00
2018-05-12T04:56:14.139Z,4604.00
2018-05-12T04:57:14.120Z,4660.00
2018-05-12T04:58:14.118Z,4716.00
2018-05-12T04:59:14.109Z,4780.00
2018-05-12T05:00:14.118Z,4848.00
2018-05-12T05:01:14.105Z,4896.00
2018-05-12T05:02:14.104Z,4952.00
2018-05-12T05:03:14.097Z,5028.00
2018-05-12T05:04:14.090Z,5064.00
2018-05-12T05:05:14.080Z,5132.00
2018-05-12T05:06:14.088Z,5204.00
2018-05-12T05:07:14.078Z,5252.00
2018-05-12T05:08:14.092Z,5308.00
2018-05-12T05:09:14.070Z,5372.00
2018-05-12T05:10:14.067Z,5432.00
2018-05-12T05:11:14.076Z,5504.00
2018-05-12T05:12:14.052Z,5544.00
2018-05-12T05:13:14.058Z,5600.00
2018-05-12T05:14:14.052Z,5664.00
2018-05-12T05:15:14.085Z,5736.00
2018-05-12T05:16:14.040Z,5796.00
2018-05-12T05:17:14.045Z,5872.00
2018-05-12T05:18:14.043Z,5932.00
2018-05-12T05:19:14.028Z,5992.00
2018-05-12T05:20:14.025Z,6048.00
2018-05-12T05:21:14.093Z,6100.00
2018-05-12T05:22:14.015Z,6160.00
2018-05-12T05:23:14.016Z,6228.00
2018-05-12T05:24:14.013Z,6300.00
2018-05-12T05:25:14.013Z,6372.00
2018-05-12T05:26:14.026Z,6444.00
2018-05-12T05:27:14.000Z,6532.00
2018-05-12T05:28:14.004Z,6620.00
2018-05-12T05:29:13.991Z,6672.00
2018-05-12T05:30:14.007Z,6736.00
2018-05-12T05:31:13.981Z,6812.00
2018-05-12T05:32:13.979Z,6868.00
2018-05-12T05:33:13.989Z,6920.00
2018-05-12T05:34:14.004Z,6976.00
2018-05-12T05:35:14.005Z,7040.00
2018-05-12T05:36:13.967Z,7092.00
2018-05-12T05:37:13.963Z,7140.00
2018-05-12T05:38:13.958Z,7212.00
2018-05-12T05:39:13.954Z,7284.00
2018-05-12T05:40:13.952Z,7380.00
2018-05-12T05:41:13.951Z,7416.00
2018-05-12T05:42:13.948Z,7492.00
2018-05-12T05:43:13.942Z,7580.00
2018-05-12T05:44:13.942Z,7636.00
2018-05-12T05:45:13.959Z,7696.00
2018-05-12T05:46:13.938Z,7752.00
2018-05-12T05:47:13.933Z,7808.00
2018-05-12T05:48:13.928Z,7856.00
2018-05-12T05:49:13.920Z,7920.00
2018-05-12T05:50:13.938Z,8008.00
2018-05-12T05:51:13.932Z,8076.00
2018-05-12T05:52:13.922Z,8152.00
2018-05-12T05:53:13.918Z,8216.00
2018-05-12T05:54:13.912Z,8276.00
2018-05-12T05:55:13.912Z,8364.00
2018-05-12T05:56:14.581Z,8428.00
2018-05-12T05:57:13.916Z,8484.00
2018-05-12T05:58:13.904Z,8532.00
2018-05-12T05:59:13.897Z,8568.00
2018-05-12T06:00:13.950Z,8632.00
2018-05-12T06:01:13.895Z,8724.00
2018-05-12T06:02:13.969Z,8852.00
2018-05-12T06:03:13.896Z,8976.00
2018-05-12T06:04:13.887Z,9088.00
2018-05-12T06:05:13.897Z,9084.00
2018-05-12T06:06:13.886Z,9040.00
2018-05-12T06:07:13.987Z,8996.00
2018-05-12T06:08:13.879Z,8984.00
2018-05-12T06:09:13.867Z,9148.00
2018-05-12T06:10:13.875Z,9228.00
2018-05-12T06:11:13.877Z,9064.00
2018-05-12T06:12:13.904Z,9084.00
2018-05-12T06:13:13.883Z,9360.00
2018-05-12T06:14:13.944Z,9532.00
2018-05-12T06:15:13.883Z,9612.00
2018-05-12T06:16:13.860Z,9508.00
2018-05-12T06:17:13.900Z,9576.00
2018-05-12T06:18:13.906Z,9500.00
2018-05-12T06:19:13.858Z,9392.00
2018-05-12T06:20:13.855Z,9496.00
2018-05-12T06:21:13.855Z,9420.00
2018-05-12T06:22:13.898Z,9376.00
2018-05-12T06:23:13.894Z,9484.00
2018-05-12T06:24:13.911Z,9556.00
2018-05-12T06:25:13.912Z,9536.00
2018-05-12T06:26:13.859Z,9580.00
2018-05-12T06:27:13.876Z,9604.00
2018-05-12T06:28:13.944Z,9636.00
2018-05-12T06:29:13.943Z,9728.00
2018-05-12T06:30:13.839Z,9756.00
2018-05-12T06:31:13.845Z,9948.00
2018-05-12T06:32:13.858Z,10036.00
2018-05-12T06:33:13.874Z,10000.00
2018-05-12T06:34:13.866Z,10092.00
2018-05-12T06:35:13.872Z,10164.00
2018-05-12T06:36:13.870Z,10196.00
2018-05-12T06:37:13.897Z,10260.00
2018-05-12T06:38:13.899Z,10324.00
2018-05-12T06:39:13.845Z,10268.00
2018-05-12T06:40:13.837Z,10172.00
2018-05-12T06:41:13.873Z,10180.00
2018-05-12T06:42:13.863Z,10276.00
2018-05-12T06:43:13.848Z,10456.00
2018-05-12T06:44:13.843Z,10616.00
2018-05-12T06:45:13.858Z,10540.00
2018-05-12T06:46:13.843Z,10380.00
2018-05-12T06:47:13.837Z,10272.00
2018-05-12T06:48:13.814Z,10256.00
2018-05-12T06:49:13.849Z,10604.00
2018-05-12T06:50:13.814Z,10628.00
2018-05-12T06:51:13.818Z,10628.00
2018-05-12T06:52:13.807Z,10772.00
2018-05-12T06:53:13.810Z,10772.00
2018-05-12T06:54:13.867Z,10620.00
2018-05-12T06:55:13.902Z,10720.00
2018-05-12T06:56:13.822Z,10940.00
2018-05-12T06:57:14.642Z,10988.00
2018-05-12T06:58:13.823Z,11028.00
2018-05-12T06:59:13.837Z,10992.00
2018-05-12T07:00:13.846Z,11152.00
2018-05-12T07:01:14.769Z,11196.00
2018-05-12T07:02:13.823Z,11252.00
2018-05-12T07:03:13.883Z,11288.00
2018-05-12T07:04:13.874Z,11532.00
2018-05-12T07:05:13.833Z,12216.00
2018-05-12T07:06:13.842Z,13260.00
2018-05-12T07:07:13.829Z,21952.00
2018-05-12T07:08:13.840Z,45824.00
2018-05-12T07:09:13.839Z,58144.00
2018-05-12T07:10:13.810Z,57664.00
2018-05-12T07:11:13.819Z,57536.00
2018-05-12T07:12:13.852Z,57408.00
2018-05-12T07:13:13.824Z,56896.00
2018-05-12T07:14:13.845Z,57152.00
2018-05-12T07:15:13.829Z,61856.00
2018-05-12T07:16:13.860Z,63712.00
2018-05-12T07:17:13.866Z,58976.00
2018-05-12T07:18:13.865Z,61376.00
2018-05-12T07:19:13.851Z,62880.00
2018-05-12T07:20:13.879Z,57760.00
2018-05-12T07:21:13.892Z,64160.00
2018-05-12T07:22:13.895Z,63424.00
2018-05-12T07:23:13.900Z,64384.00
2018-05-12T07:24:13.904Z,62752.00
2018-05-12T07:25:13.921Z,64608.00
2018-05-12T07:26:13.882Z,64768.00
2018-05-12T07:27:13.915Z,64512.00
2018-05-12T07:28:13.925Z,66976.00
2018-05-12T07:29:13.946Z,67584.00
2018-05-12T07:30:13.945Z,63904.00
2018-05-12T07:31:13.958Z,68640.00
2018-05-12T07:32:13.958Z,70048.00
2018-05-12T07:33:13.975Z,71296.00
2018-05-12T07:34:13.968Z,80672.00
2018-05-12T07:35:14.001Z,78720.00
2018-05-12T07:36:14.053Z,81120.00
2018-05-12T07:37:14.013Z,81184.00
2018-05-12T07:38:14.030Z,70400.00
2018-05-12T07:39:14.030Z,71584.00
2018-05-12T07:40:14.117Z,85408.00
2018-05-12T07:41:14.123Z,84512.00
2018-05-12T07:42:14.139Z,80608.00
2018-05-12T07:43:14.137Z,84128.00
2018-05-12T07:44:14.111Z,83520.00
2018-05-12T07:45:14.655Z,82048.00
2018-05-12T07:46:14.174Z,83680.00
2018-05-12T07:47:14.148Z,77120.00
2018-05-12T07:48:14.163Z,73280.00
2018-05-12T07:49:14.168Z,80672.00
2018-05-12T07:50:14.181Z,78240.00
2018-05-12T07:51:14.179Z,76704.00
2018-05-12T07:52:14.189Z,77440.00
2018-05-12T07:53:14.197Z,74208.00
2018-05-12T07:54:14.206Z,79616.00
2018-05-12T07:55:14.231Z,84064.00
2018-05-12T07:56:14.285Z,83104.00
2018-05-12T07:57:14.246Z,80544.00
2018-05-12T07:58:14.268Z,83552.00
2018-05-12T07:59:14.329Z,79584.00
2018-05-12T08:00:14.341Z,72544.00
2018-05-12T08:01:14.327Z,68768.00
2018-05-12T08:02:14.377Z,72288.00
2018-05-12T08:03:14.357Z,78272.00
2018-05-12T08:04:14.359Z,76096.00
2018-05-12T08:05:14.381Z,72640.00
2018-05-12T08:06:14.381Z,75424.00
2018-05-12T08:07:14.398Z,73696.00
2018-05-12T08:08:14.417Z,78400.00
2018-05-12T08:09:14.433Z,79776.00
2018-05-12T08:10:14.509Z,78336.00
2018-05-12T08:11:14.452Z,74112.00
2018-05-12T08:12:15.133Z,69856.00
2018-05-12T08:13:14.488Z,65664.00
2018-05-12T08:14:14.547Z,63744.00
2018-05-12T08:15:14.542Z,63872.00
2018-05-12T08:16:14.526Z,64448.00
2018-05-12T08:17:14.583Z,66080.00
2018-05-12T08:18:14.573Z,63296.00
2018-05-12T08:19:14.585Z,62848.00
2018-05-12T08:20:14.615Z,66272.00
2018-05-12T08:21:14.683Z,67648.00
2018-05-12T08:22:14.625Z,68320.00
2018-05-12T08:23:14.692Z,65024.00
2018-05-12T08:24:14.700Z,65120.00
2018-05-12T08:25:14.692Z,67680.00
2018-05-12T08:26:14.713Z,63456.00
2018-05-12T08:27:14.737Z,59456.00
2018-05-12T08:28:14.722Z,64736.00
2018-05-12T08:29:14.731Z,69376.00
2018-05-12T08:30:14.763Z,70976.00
2018-05-12T08:31:15.557Z,65856.00
2018-05-12T08:32:14.812Z,60224.00
2018-05-12T08:33:14.870Z,60352.00
2018-05-12T08:34:14.863Z,65216.00
2018-05-12T08:35:14.878Z,67456.00
2018-05-12T08:36:14.919Z,60672.00
2018-05-12T08:37:14.873Z,58624.00
2018-05-12T08:38:14.899Z,67040.00
2018-05-12T08:39:14.914Z,67968.00
2018-05-12T08:40:14.929Z,65920.00
2018-05-12T08:41:15.012Z,64064.00
2018-05-12T08:42:15.640Z,65216.00
2018-05-12T08:43:15.024Z,65056.00
2018-05-12T08:44:15.046Z,66400.00
2018-05-12T08:45:15.057Z,72384.00
2018-05-12T08:46:15.043Z,76832.00
2018-05-12T08:47:15.077Z,72064.00
2018-05-12T08:48:15.105Z,69792.00
2018-05-12T08:49:15.083Z,71744.00
2018-05-12T08:50:15.090Z,71904.00
2018-05-12T08:51:15.108Z,73696.00
2018-05-12T08:52:15.126Z,75584.00
2018-05-12T08:53:15.151Z,77952.00
2018-05-12T08:54:15.167Z,77856.00
2018-05-12T08:55:15.220Z,74336.00
2018-05-12T08:56:15.227Z,75200.00
2018-05-12T08:57:15.210Z,78656.00
2018-05-12T08:58:15.234Z,77888.00
2018-05-12T08:59:15.265Z,74432.00
2018-05-12T09:00:15.340Z,70528.00
2018-05-12T09:01:15.361Z,73088.00
2018-05-12T09:02:15.356Z,80000.00
2018-05-12T09:03:15.345Z,75712.00
2018-05-12T09:04:15.335Z,69408.00
2018-05-12T09:05:15.357Z,68576.00
2018-05-12T09:06:15.375Z,68288.00
2018-05-12T09:07:15.433Z,70976.00
2018-05-12T09:08:15.409Z,73792.00
2018-05-12T09:09:15.432Z,70400.00
2018-05-12T09:10:15.509Z,72352.00
2018-05-12T09:11:16.128Z,71552.00
2018-05-12T09:12:15.484Z,67744.00
2018-05-12T09:13:15.502Z,70208.00
2018-05-12T09:14:15.532Z,69728.00
2018-05-12T09:15:15.561Z,70304.00
2018-05-12T09:16:15.558Z,69952.00
2018-05-12T09:17:15.583Z,68896.00
2018-05-12T09:18:15.598Z,69920.00
2018-05-12T09:19:15.659Z,67872.00
2018-05-12T09:20:15.635Z,67584.00
2018-05-12T09:21:15.657Z,68544.00
2018-05-12T09:22:15.676Z,69952.00
2018-05-12T09:23:15.687Z,72896.00
2018-05-12T09:24:15.711Z,72096.00
2018-05-12T09:25:15.725Z,68768.00
2018-05-12T09:26:15.817Z,71968.00
2018-05-12T09:27:15.770Z,71520.00
2018-05-12T09:28:15.832Z,69664.00
2018-05-12T09:29:15.815Z,67520.00
2018-05-12T09:30:15.844Z,65728.00
2018-05-12T09:31:15.844Z,65952.00
2018-05-12T09:32:15.869Z,72096.00
2018-05-12T09:33:15.882Z,70688.00
2018-05-12T09:34:15.894Z,68832.00
2018-05-12T09:35:15.926Z,69600.00
2018-05-12T09:36:15.955Z,70304.00
2018-05-12T09:37:16.031Z,69792.00
2018-05-12T09:38:16.009Z,71328.00
2018-05-12T09:39:16.004Z,74624.00
2018-05-12T09:40:16.021Z,70144.00
2018-05-12T09:41:16.143Z,67552.00
2018-05-12T09:42:16.066Z,70528.00
2018-05-12T09:43:16.082Z,74336.00
2018-05-12T09:44:16.098Z,71136.00
2018-05-12T09:45:17.112Z,69792.00
2018-05-12T09:46:16.151Z,70880.00
2018-05-12T09:47:16.158Z,70592.00
2018-05-12T09:48:16.176Z,68256.00
2018-05-12T09:49:16.191Z,66656.00
2018-05-12T09:50:16.212Z,73248.00
2018-05-12T09:51:16.233Z,68992.00
2018-05-12T09:52:16.289Z,68160.00
2018-05-12T09:53:16.271Z,69728.00
2018-05-12T09:54:16.289Z,70688.00
2018-05-12T09:55:16.314Z,67840.00
2018-05-12T09:56:16.349Z,66400.00
2018-05-12T09:57:16.388Z,65440.00
2018-05-12T09:58:16.364Z,63936.00
2018-05-12T09:59:16.385Z,66464.00
2018-05-12T10:00:16.512Z,68960.00
2018-05-12T10:01:16.432Z,70976.00
2018-05-12T10:02:16.439Z,76320.00
2018-05-12T10:03:16.470Z,76352.00
2018-05-12T10:04:16.496Z,72128.00
2018-05-12T10:05:16.506Z,68640.00
2018-05-12T10:06:16.522Z,69184.00
2018-05-12T10:07:16.550Z,73504.00
2018-05-12T10:08:16.608Z,78304.00
2018-05-12T10:09:16.613Z,75904.00
2018-05-12T10:10:16.599Z,69504.00
2018-05-12T10:11:16.645Z,69696.00
2018-05-12T10:12:16.637Z,73568.00
2018-05-12T10:13:16.659Z,76928.00
2018-05-12T10:14:16.681Z,80224.00
2018-05-12T10:15:16.783Z,83936.00
2018-05-12T10:16:16.778Z,82272.00
2018-05-12T10:17:16.737Z,79104.00
2018-05-12T10:18:16.757Z,78336.00
2018-05-12T10:19:16.773Z,70496.00
2018-05-12T10:20:16.814Z,66400.00
2018-05-12T10:21:16.829Z,65120.00
2018-05-12T10:22:16.830Z,69888.00
2018-05-12T10:23:16.846Z,71456.00
2018-05-12T10:24:16.880Z,67520.00
2018-05-12T10:25:16.906Z,71392.00
2018-05-12T10:26:16.972Z,81984.00
2018-05-12T10:27:16.956Z,80640.00
2018-05-12T10:28:17.096Z,80800.00
2018-05-12T10:29:16.968Z,81344.00
2018-05-12T10:30:17.061Z,81632.00
2018-05-12T10:31:17.000Z,79712.00
2018-05-12T10:32:17.015Z,80224.00
2018-05-12T10:33:17.036Z,88800.00
2018-05-12T10:34:17.060Z,86112.00
2018-05-12T10:35:17.096Z,76480.00
2018-05-12T10:36:17.094Z,76128.00
2018-05-12T10:37:17.111Z,79552.00
2018-05-12T10:38:17.153Z,81568.00
2018-05-12T10:39:17.149Z,77376.00
2018-05-12T10:40:17.173Z,78208.00
2018-05-12T10:41:17.202Z,82464.00
2018-05-12T10:42:17.197Z,81376.00
2018-05-12T10:43:17.220Z,77984.00
2018-05-12T10:44:17.236Z,81440.00
2018-05-12T10:45:17.322Z,83424.00
2018-05-12T10:46:17.272Z,80384.00
2018-05-12T10:47:17.282Z,78720.00
2018-05-12T10:48:17.382Z,80448.00
2018-05-12T10:49:17.374Z,84608.00
2018-05-12T10:50:17.341Z,86208.00
2018-05-12T10:51:17.377Z,83840.00
2018-05-12T10:52:17.406Z,79520.00
2018-05-12T10:53:17.454Z,81248.00
2018-05-12T10:54:17.430Z,81216.00
2018-05-12T10:55:17.451Z,73248.00
2018-05-12T10:56:17.473Z,70688.00
2018-05-12T10:57:17.533Z,74624.00
2018-05-12T10:58:17.502Z,74336.00
2018-05-12T10:59:17.512Z,72864.00
2018-05-12T11:00:17.568Z,73664.00
2018-05-12T11:01:17.539Z,73600.00
2018-05-12T11:02:17.587Z,79520.00
2018-05-12T11:03:17.600Z,83904.00
2018-05-12T11:04:17.618Z,86080.00
2018-05-12T11:05:17.622Z,88288.00
2018-05-12T11:06:17.627Z,81024.00
2018-05-12T11:07:17.714Z,82336.00
2018-05-12T11:08:17.721Z,82816.00
2018-05-12T11:09:17.691Z,80896.00
2018-05-12T11:10:17.737Z,79936.00
2018-05-12T11:11:17.735Z,80288.00
2018-05-12T11:12:18.618Z,76800.00
2018-05-12T11:13:17.757Z,74848.00
2018-05-12T11:14:17.780Z,82912.00
2018-05-12T11:15:17.788Z,66080.00
2018-05-12T11:16:17.877Z,85664.00
2018-05-12T11:17:17.885Z,84448.00
2018-05-12T11:18:17.891Z,85632.00
2018-05-12T11:19:17.857Z,20896.00
2018-05-12T11:20:17.980Z,54528.00
2018-05-12T11:21:17.912Z,17204.00
2018-05-12T11:22:17.898Z,37664.00
2018-05-12T11:23:17.913Z,85536.00
2018-05-12T11:24:17.932Z,83104.00
2018-05-12T11:25:17.965Z,84416.00
2018-05-12T11:26:18.046Z,86144.00
2018-05-12T11:27:18.050Z,81632.00
2018-05-12T11:28:18.056Z,76256.00
2018-05-12T11:29:18.015Z,74016.00
2018-05-12T11:30:18.073Z,72704.00
2018-05-12T11:31:18.052Z,71456.00
2018-05-12T11:32:18.099Z,75744.00
2018-05-12T11:33:18.118Z,78688.00
2018-05-12T11:34:18.093Z,65568.00
2018-05-12T11:35:18.134Z,71040.00
2018-05-12T11:36:18.125Z,73696.00
2018-05-12T11:37:18.221Z,77504.00
2018-05-12T11:38:18.160Z,79424.00
2018-05-12T11:39:18.245Z,81504.00
2018-05-12T11:40:18.291Z,85984.00
2018-05-12T11:41:18.249Z,84768.00
2018-05-12T11:42:18.222Z,80256.00
2018-05-12T11:43:18.234Z,76608.00
2018-05-12T11:44:18.263Z,79584.00
2018-05-12T11:45:18.307Z,83264.00
2018-05-12T11:46:18.296Z,86848.00
2018-05-12T11:47:18.410Z,88128.00
2018-05-12T11:48:18.325Z,85760.00
2018-05-12T11:49:18.344Z,85376.00
2018-05-12T11:50:18.363Z,79392.00
2018-05-12T11:51:18.420Z,76064.00
2018-05-12T11:52:18.393Z,77760.00
2018-05-12T11:53:18.413Z,79808.00
2018-05-12T11:54:18.431Z,80928.00
2018-05-12T11:55:18.449Z,77728.00
2018-05-12T11:56:18.551Z,73216.00
2018-05-12T11:57:18.481Z,68224.00
2018-05-12T11:58:18.614Z,70176.00
2018-05-12T11:59:18.521Z,69920.00
2018-05-12T12:00:18.599Z,45344.00
2018-05-12T12:01:18.554Z,25088.00
2018-05-12T12:02:18.569Z,36832.00
2018-05-12T12:03:18.590Z,50720.00
2018-05-12T12:04:18.675Z,17296.00
2018-05-12T12:05:18.621Z,14596.00
2018-05-12T12:06:18.638Z,14756.00
2018-05-12T12:07:18.649Z,64544.00
2018-05-12T12:08:18.666Z,70464.00
2018-05-12T12:09:18.726Z,69056.00
2018-05-12T12:10:18.698Z,69568.00
2018-05-12T12:11:18.725Z,72576.00
2018-05-12T12:12:18.723Z,72576.00
2018-05-12T12:13:18.734Z,67680.00
2018-05-12T12:14:18.749Z,62816.00
2018-05-12T12:15:18.782Z,59712.00
2018-05-12T12:16:18.782Z,34560.00
2018-05-12T12:17:18.798Z,54560.00
2018-05-12T12:18:18.826Z,58496.00
2018-05-12T12:19:18.829Z,56544.00
2018-05-12T12:20:18.913Z,69056.00
2018-05-12T12:21:18.919Z,70752.00
2018-05-12T12:22:18.943Z,70880.00
2018-05-12T12:23:19.537Z,72192.00
2018-05-12T12:24:19.536Z,78656.00
2018-05-12T12:25:19.534Z,78880.00
2018-05-12T12:26:18.965Z,72384.00
2018-05-12T12:27:18.959Z,59968.00
2018-05-12T12:28:18.966Z,28960.00
2018-05-12T12:29:18.998Z,14536.00
2018-05-12T12:30:19.006Z,13160.00
2018-05-12T12:31:19.005Z,12644.00
2018-05-12T12:32:19.105Z,12140.00
2018-05-12T12:33:19.080Z,10696.00
2018-05-12T12:34:19.102Z,10248.00
2018-05-12T12:35:19.111Z,9904.00
2018-05-12T12:36:19.080Z,9744.00
2018-05-12T12:37:19.139Z,9144.00
2018-05-12T12:38:19.136Z,8972.00
2018-05-12T12:39:19.149Z,8988.00
2018-05-12T12:40:19.118Z,9076.00
2018-05-12T12:41:19.167Z,9308.00
2018-05-12T12:42:19.158Z,9632.00
2018-05-12T12:43:19.163Z,10020.00
2018-05-12T12:44:19.200Z,10220.00
2018-05-12T12:45:19.182Z,10476.00
2018-05-12T12:46:19.197Z,10956.00
2018-05-12T12:47:19.196Z,11044.00
2018-05-12T12:48:19.208Z,11160.00